createdAt,value
2022-10-17T00:00:13.099Z,60.59
2022-10-17T00:01:13.153Z,67.35
2022-10-17T00:02:13.078Z,63.65
2022-10-17T00:03:13.073Z,66.87
2022-10-17T00:04:13.067Z,67.19
2022-10-17T00:05:13.053Z,64.61
2022-10-17T00:06:13.058Z,63.65
2022-10-17T00:07:13.030Z,61.23
2022-10-17T00:08:13.026Z,65.42
2022-10-17T00:09:13.012Z,68.80
2022-10-17T00:10:12.997Z,66.87
2022-10-17T00:11:13.005Z,65.42
2022-10-17T00:12:12.980Z,66.55
2022-10-17T00:13:12.966Z,65.74
2022-10-17T00:14:12.956Z,67.03
2022-10-17T00:15:12.951Z,66.39
2022-10-17T00:16:12.952Z,66.87
2022-10-17T00:17:12.935Z,63.16
2022-10-17T00:18:12.924Z,66.71
2022-10-17T00:19:12.921Z,66.87
2022-10-17T00:20:12.900Z,61.55
2022-10-17T00:21:12.921Z,65.58
2022-10-17T00:22:12.880Z,64.13
2022-10-17T00:23:12.875Z,66.71
2022-10-17T00:24:12.866Z,66.06
2022-10-17T00:25:12.872Z,72.19
2022-10-17T00:26:12.853Z,66.87
2022-10-17T00:27:12.831Z,67.68
2022-10-17T00:28:12.820Z,65.42
2022-10-17T00:29:12.813Z,67.03
2022-10-17T00:30:12.795Z,65.26
2022-10-17T00:31:12.801Z,67.84
2022-10-17T00:32:12.776Z,68.32
2022-10-17T00:33:12.765Z,66.55
2022-10-17T00:34:12.760Z,65.90
2022-10-17T00:35:12.760Z,67.19
2022-10-17T00:36:12.745Z,71.06
2022-10-17T00:37:12.725Z,66.87
2022-10-17T00:38:12.719Z,67.03
2022-10-17T00:39:12.710Z,67.35
2022-10-17T00:40:12.694Z,67.68
2022-10-17T00:41:12.724Z,68.80
2022-10-17T00:42:12.670Z,66.87
2022-10-17T00:43:12.665Z,66.87
2022-10-17T00:44:12.660Z,68.96
2022-10-17T00:45:12.651Z,67.03
2022-10-17T00:46:12.656Z,70.74
2022-10-17T00:47:12.634Z,68.80
2022-10-17T00:48:12.627Z,68.48
2022-10-17T00:49:12.617Z,66.39
2022-10-17T00:50:12.603Z,68.96
2022-10-17T00:51:12.610Z,68.16
2022-10-17T00:52:12.580Z,68.16
2022-10-17T00:53:12.572Z,65.42
2022-10-17T00:54:12.555Z,69.77
2022-10-17T00:55:12.564Z,66.55
2022-10-17T00:56:12.563Z,67.51
2022-10-17T00:57:12.538Z,66.39
2022-10-17T00:58:12.525Z,66.71
2022-10-17T00:59:12.515Z,69.45
2022-10-17T01:00:12.494Z,69.13
2022-10-17T01:01:12.543Z,70.58
2022-10-17T01:02:12.487Z,69.45
2022-10-17T01:03:12.469Z,64.13
2022-10-17T01:04:12.464Z,69.77
2022-10-17T01:05:12.453Z,68.96
2022-10-17T01:06:12.471Z,69.13
2022-10-17T01:07:12.443Z,63.81
2022-10-17T01:08:12.417Z,67.84
2022-10-17T01:09:12.419Z,68.00
2022-10-17T01:10:12.464Z,68.32
2022-10-17T01:11:12.393Z,65.90
2022-10-17T01:12:12.399Z,67.84
2022-10-17T01:13:12.358Z,67.19
2022-10-17T01:14:12.363Z,66.23
2022-10-17T01:15:12.363Z,67.68
2022-10-17T01:16:12.369Z,67.84
2022-10-17T01:17:12.329Z,64.29
2022-10-17T01:18:12.329Z,65.10
2022-10-17T01:19:12.371Z,65.58
2022-10-17T01:20:12.298Z,66.06
2022-10-17T01:21:12.288Z,63.49
2022-10-17T01:22:12.305Z,71.70
2022-10-17T01:23:12.273Z,63.65
2022-10-17T01:24:12.263Z,67.35
2022-10-17T01:25:12.251Z,67.03
2022-10-17T01:26:12.270Z,64.61
2022-10-17T01:27:12.231Z,64.94
2022-10-17T01:28:12.224Z,67.51
2022-10-17T01:29:12.210Z,64.29
2022-10-17T01:30:12.214Z,65.90
2022-10-17T01:31:12.190Z,66.87
2022-10-17T01:32:12.204Z,66.06
2022-10-17T01:33:12.171Z,63.33
2022-10-17T01:34:12.162Z,65.74
2022-10-17T01:35:12.143Z,60.75
2022-10-17T01:36:12.143Z,64.78
2022-10-17T01:37:12.149Z,63.97
2022-10-17T01:38:12.128Z,64.61
2022-10-17T01:39:12.103Z,67.35
2022-10-17T01:40:12.103Z,65.58
2022-10-17T01:41:12.090Z,63.16
2022-10-17T01:42:12.103Z,66.71
2022-10-17T01:43:12.067Z,69.61
2022-10-17T01:44:12.059Z,63.16
2022-10-17T01:45:12.054Z,65.26
2022-10-17T01:46:12.052Z,63.33
2022-10-17T01:47:12.048Z,63.16
2022-10-17T01:48:12.024Z,63.49
2022-10-17T01:49:12.012Z,65.90
2022-10-17T01:50:12.005Z,64.61
2022-10-17T01:51:12.001Z,63.49
2022-10-17T01:52:11.998Z,60.10
2022-10-17T01:53:11.972Z,66.55
2022-10-17T01:54:11.968Z,67.51
2022-10-17T01:55:11.952Z,65.74
2022-10-17T01:56:11.949Z,67.03
2022-10-17T01:57:11.958Z,64.45
2022-10-17T01:58:11.924Z,65.58
2022-10-17T01:59:11.928Z,68.64
2022-10-17T02:00:11.913Z,66.71
2022-10-17T02:01:11.999Z,65.42
2022-10-17T02:02:11.912Z,62.36
2022-10-17T02:03:11.872Z,66.23
2022-10-17T02:04:11.901Z,65.58
2022-10-17T02:05:11.858Z,65.10
2022-10-17T02:06:11.851Z,64.13
2022-10-17T02:07:11.884Z,64.45
2022-10-17T02:08:11.828Z,66.23
2022-10-17T02:09:11.827Z,65.74
2022-10-17T02:10:11.819Z,66.39
2022-10-17T02:11:11.801Z,67.03
2022-10-17T02:12:12.254Z,65.10
2022-10-17T02:13:11.780Z,67.68
2022-10-17T02:15:11.770Z,68.32
2022-10-17T02:16:11.757Z,65.42
2022-10-17T02:17:11.767Z,63.16
2022-10-17T02:18:11.746Z,67.03
2022-10-17T02:19:11.721Z,66.39
2022-10-17T02:20:11.713Z,64.45
2022-10-17T02:21:11.714Z,67.68
2022-10-17T02:22:11.745Z,68.32
2022-10-17T02:23:11.688Z,66.71
2022-10-17T02:24:11.670Z,66.06
2022-10-17T02:25:11.664Z,67.03
2022-10-17T02:26:11.659Z,68.00
2022-10-17T02:27:11.667Z,66.06
2022-10-17T02:28:11.636Z,64.45
2022-10-17T02:29:11.637Z,64.61
2022-10-17T02:30:11.617Z,65.74
2022-10-17T02:31:11.614Z,68.64
2022-10-17T02:32:11.697Z,68.48
2022-10-17T02:33:11.589Z,61.71
2022-10-17T02:34:11.586Z,64.61
2022-10-17T02:35:11.588Z,65.10
2022-10-17T02:36:11.561Z,66.55
2022-10-17T02:37:11.562Z,68.16
2022-10-17T02:38:11.531Z,67.03
2022-10-17T02:39:11.526Z,66.87
2022-10-17T02:40:11.519Z,67.03
2022-10-17T02:41:11.517Z,67.51
2022-10-17T02:42:11.514Z,66.39
2022-10-17T02:43:11.485Z,65.10
2022-10-17T02:44:11.476Z,67.35
2022-10-17T02:45:11.472Z,66.39
2022-10-17T02:46:11.456Z,70.09
2022-10-17T02:47:11.447Z,67.03
2022-10-17T02:48:11.443Z,63.81
2022-10-17T02:49:11.422Z,67.35
2022-10-17T02:50:11.420Z,67.51
2022-10-17T02:51:11.394Z,65.10
2022-10-17T02:52:11.410Z,64.78
2022-10-17T02:53:11.380Z,68.96
2022-10-17T02:54:11.375Z,64.45
2022-10-17T02:55:11.362Z,67.68
2022-10-17T02:56:11.378Z,67.03
2022-10-17T02:57:11.344Z,65.58
2022-10-17T02:58:11.332Z,66.87
2022-10-17T02:59:11.318Z,66.06
2022-10-17T03:00:11.320Z,67.51
2022-10-17T03:01:11.432Z,66.06
2022-10-17T03:02:11.305Z,68.00
2022-10-17T03:03:11.281Z,68.32
2022-10-17T03:04:11.275Z,67.03
2022-10-17T03:05:11.263Z,64.29
2022-10-17T03:06:11.252Z,66.55
2022-10-17T03:07:11.261Z,66.71
2022-10-17T03:08:11.232Z,67.03
2022-10-17T03:09:11.219Z,69.13
2022-10-17T03:10:11.207Z,66.55
2022-10-17T03:11:11.205Z,66.55
2022-10-17T03:12:11.209Z,67.03
2022-10-17T03:13:11.191Z,67.19
2022-10-17T03:14:11.169Z,66.06
2022-10-17T03:15:11.162Z,68.00
2022-10-17T03:16:11.229Z,66.55
2022-10-17T03:17:11.158Z,68.00
2022-10-17T03:18:11.126Z,67.03
2022-10-17T03:19:11.122Z,67.51
2022-10-17T03:20:11.115Z,68.80
2022-10-17T03:21:11.102Z,69.29
2022-10-17T03:22:11.109Z,65.90
2022-10-17T03:23:11.085Z,67.03
2022-10-17T03:24:11.070Z,69.29
2022-10-17T03:25:11.064Z,67.03
2022-10-17T03:26:11.060Z,67.68
2022-10-17T03:27:11.061Z,67.84
2022-10-17T03:28:11.043Z,69.45
2022-10-17T03:29:11.083Z,67.03
2022-10-17T03:30:11.019Z,66.55
2022-10-17T03:31:11.004Z,67.03
2022-10-17T03:32:11.028Z,68.48
2022-10-17T03:33:10.991Z,66.87
2022-10-17T03:34:10.973Z,68.00
2022-10-17T03:35:14.892Z,66.71
2022-10-17T03:36:11.953Z,66.87
2022-10-17T03:37:10.970Z,67.51
2022-10-17T03:38:10.942Z,67.51
2022-10-17T03:39:10.921Z,68.16
2022-10-17T03:40:10.921Z,67.35
2022-10-17T03:41:10.907Z,67.84
2022-10-17T03:42:10.919Z,67.35
2022-10-17T03:43:10.889Z,66.39
2022-10-17T03:44:10.874Z,68.64
2022-10-17T03:45:10.874Z,67.68
2022-10-17T03:46:10.907Z,68.96
2022-10-17T03:47:13.400Z,68.00
2022-10-17T03:48:10.839Z,67.84
2022-10-17T03:49:10.827Z,69.45
2022-10-17T03:50:10.806Z,67.84
2022-10-17T03:51:10.832Z,69.93
2022-10-17T03:52:10.810Z,68.96
2022-10-17T03:53:10.775Z,68.96
2022-10-17T03:54:10.779Z,67.03
2022-10-17T03:55:10.771Z,66.06
2022-10-17T03:56:10.767Z,67.35
2022-10-17T03:57:10.766Z,68.80
2022-10-17T03:58:10.739Z,67.19
2022-10-17T03:59:10.734Z,67.84
2022-10-17T04:00:10.719Z,67.19
2022-10-17T04:01:10.781Z,68.00
2022-10-17T04:02:10.714Z,68.16
2022-10-17T04:03:14.937Z,68.96
2022-10-17T04:04:12.674Z,68.00
2022-10-17T04:05:10.665Z,67.51
2022-10-17T04:06:10.656Z,69.45
2022-10-17T04:07:10.663Z,67.19
2022-10-17T04:08:10.637Z,68.48
2022-10-17T04:09:10.622Z,66.23
2022-10-17T04:10:10.615Z,67.84
2022-10-17T04:11:10.598Z,67.84
2022-10-17T04:12:10.621Z,65.26
2022-10-17T04:13:10.578Z,67.03
2022-10-17T04:14:10.553Z,68.00
2022-10-17T04:15:10.563Z,66.71
2022-10-17T04:16:10.553Z,68.16
2022-10-17T04:17:10.561Z,67.51
2022-10-17T04:18:10.536Z,66.55
2022-10-17T04:19:10.523Z,67.51
2022-10-17T04:20:10.522Z,67.19
2022-10-17T04:21:10.500Z,66.87
2022-10-17T04:22:10.540Z,67.51
2022-10-17T04:23:10.483Z,65.42
2022-10-17T04:24:10.477Z,65.90
2022-10-17T04:25:10.458Z,69.61
2022-10-17T04:26:10.453Z,67.68
2022-10-17T04:27:10.469Z,66.55
2022-10-17T04:28:10.430Z,69.13
2022-10-17T04:29:10.425Z,68.64
2022-10-17T04:30:10.416Z,67.84
2022-10-17T04:31:10.408Z,67.68
2022-10-17T04:32:10.413Z,67.03
2022-10-17T04:33:10.379Z,67.51
2022-10-17T04:34:10.370Z,68.00
2022-10-17T04:35:10.362Z,68.16
2022-10-17T04:36:10.358Z,68.16
2022-10-17T04:37:10.364Z,68.96
2022-10-17T04:38:10.330Z,69.45
2022-10-17T04:39:10.378Z,68.64
2022-10-17T04:40:10.313Z,68.32
2022-10-17T04:41:10.304Z,69.13
2022-10-17T04:42:10.311Z,67.84
2022-10-17T04:43:10.282Z,66.87
2022-10-17T04:44:10.285Z,66.87
2022-10-17T04:45:10.269Z,68.80
2022-10-17T04:46:10.259Z,65.90
2022-10-17T04:47:10.270Z,66.87
2022-10-17T04:48:10.239Z,67.19
2022-10-17T04:49:10.225Z,68.96
2022-10-17T04:50:10.216Z,67.84
2022-10-17T04:51:10.210Z,68.80
2022-10-17T04:52:10.216Z,66.71
2022-10-17T04:53:10.182Z,68.16
2022-10-17T04:54:10.167Z,66.23
2022-10-17T04:55:10.172Z,67.68
2022-10-17T04:56:10.156Z,69.29
2022-10-17T04:57:10.221Z,66.55
2022-10-17T04:58:10.137Z,67.35
2022-10-17T04:59:10.125Z,68.16
2022-10-17T05:01:10.168Z,67.51
2022-10-17T05:02:10.107Z,68.16
2022-10-17T05:03:10.090Z,68.16
2022-10-17T05:04:10.081Z,66.55
2022-10-17T05:05:10.072Z,68.32
2022-10-17T05:06:10.054Z,67.51
2022-10-17T05:07:10.086Z,68.32
2022-10-17T05:08:10.038Z,67.35
2022-10-17T05:09:10.031Z,66.71
2022-10-17T05:10:10.012Z,68.32
2022-10-17T05:11:10.001Z,71.06
2022-10-17T05:12:10.537Z,71.54
2022-10-17T05:13:09.988Z,68.96
2022-10-17T05:14:09.979Z,69.93
2022-10-17T05:15:09.969Z,68.32
2022-10-17T05:16:09.958Z,69.13
2022-10-17T05:17:09.960Z,69.61
2022-10-17T05:18:09.951Z,69.45
2022-10-17T05:19:09.931Z,67.84
2022-10-17T05:20:09.921Z,68.48
2022-10-17T05:21:09.933Z,69.93
2022-10-17T05:22:09.923Z,70.09
2022-10-17T05:23:09.886Z,69.93
2022-10-17T05:24:09.878Z,68.16
2022-10-17T05:25:09.866Z,69.13
2022-10-17T05:26:09.856Z,69.45
2022-10-17T05:27:09.874Z,68.80
2022-10-17T05:28:09.840Z,69.45
2022-10-17T05:29:09.908Z,69.13
2022-10-17T05:30:09.817Z,68.48
2022-10-17T05:31:09.823Z,67.35
2022-10-17T05:32:09.829Z,67.68
2022-10-17T05:33:09.792Z,67.68
2022-10-17T05:34:13.073Z,68.48
2022-10-17T05:35:09.775Z,68.00
2022-10-17T05:36:09.759Z,69.45
2022-10-17T05:37:09.771Z,68.80
2022-10-17T05:38:09.757Z,67.51
2022-10-17T05:39:09.732Z,69.77
2022-10-17T05:40:09.719Z,67.84
2022-10-17T05:41:09.713Z,69.13
2022-10-17T05:42:09.728Z,68.00
2022-10-17T05:43:09.700Z,67.35
2022-10-17T05:44:09.686Z,66.39
2022-10-17T05:45:09.665Z,68.32
2022-10-17T05:46:09.658Z,68.32
2022-10-17T05:47:09.683Z,68.96
2022-10-17T05:48:09.694Z,69.77
2022-10-17T05:49:15.022Z,68.64
2022-10-17T05:50:10.631Z,69.29
2022-10-17T05:51:09.614Z,66.87
2022-10-17T05:52:09.621Z,67.68
2022-10-17T05:53:09.597Z,68.48
2022-10-17T05:54:09.635Z,67.68
2022-10-17T05:55:09.582Z,69.13
2022-10-17T05:56:09.567Z,68.96
2022-10-17T05:57:09.587Z,68.48
2022-10-17T05:58:11.742Z,68.16
2022-10-17T05:59:10.542Z,69.29
2022-10-17T06:00:09.523Z,68.64
2022-10-17T06:01:12.069Z,66.39
2022-10-17T06:02:09.593Z,68.00
2022-10-17T06:03:09.499Z,67.51
2022-10-17T06:04:09.509Z,68.48
2022-10-17T06:05:09.476Z,68.32
2022-10-17T06:06:09.463Z,68.32
2022-10-17T06:07:09.490Z,68.32
2022-10-17T06:08:09.454Z,66.71
2022-10-17T06:09:09.432Z,66.87
2022-10-17T06:10:09.417Z,66.71
2022-10-17T06:11:10.491Z,66.55
2022-10-17T06:12:09.424Z,67.03
2022-10-17T06:13:09.393Z,67.35
2022-10-17T06:14:09.389Z,66.71
2022-10-17T06:15:09.382Z,68.16
2022-10-17T06:16:09.377Z,68.00
2022-10-17T06:17:14.835Z,66.71
2022-10-17T06:18:11.355Z,67.03
2022-10-17T06:19:09.337Z,67.68
2022-10-17T06:20:09.323Z,67.03
2022-10-17T06:21:09.327Z,67.68
2022-10-17T06:22:09.333Z,68.96
2022-10-17T06:23:09.300Z,69.45
2022-10-17T06:24:09.299Z,69.13
2022-10-17T06:25:09.280Z,69.29
2022-10-17T06:26:09.271Z,68.80
2022-10-17T06:27:11.777Z,67.84
2022-10-17T06:28:10.251Z,68.16
2022-10-17T06:29:09.292Z,69.45
2022-10-17T06:30:09.247Z,68.32
2022-10-17T06:31:09.227Z,68.00
2022-10-17T06:32:12.568Z,69.61
2022-10-17T06:33:41.103Z,69.61
2022-10-17T06:34:09.194Z,67.51
2022-10-17T06:35:09.190Z,68.96
2022-10-17T06:36:09.172Z,67.51
2022-10-17T06:37:09.196Z,67.68
2022-10-17T06:38:09.165Z,67.68
2022-10-17T06:39:09.142Z,68.48
2022-10-17T06:40:10.122Z,70.09
2022-10-17T06:41:09.130Z,68.48
2022-10-17T06:42:09.129Z,68.16
2022-10-17T06:43:09.098Z,67.68
2022-10-17T06:44:09.090Z,67.84
2022-10-17T06:45:09.105Z,69.13
2022-10-17T06:46:09.079Z,67.19
2022-10-17T06:47:09.155Z,69.13
2022-10-17T06:48:09.047Z,69.61
2022-10-17T06:49:09.055Z,67.03
2022-10-17T06:50:09.030Z,68.00
2022-10-17T06:51:09.039Z,68.16
2022-10-17T06:52:09.023Z,68.32
2022-10-17T06:53:09.024Z,67.03
2022-10-17T06:54:08.997Z,65.42
2022-10-17T06:55:08.986Z,67.19
2022-10-17T06:56:08.957Z,66.06
2022-10-17T06:57:09.018Z,67.84
2022-10-17T06:58:08.968Z,67.84
2022-10-17T06:59:08.937Z,70.25
2022-10-17T07:00:08.927Z,66.87
2022-10-17T07:02:09.965Z,66.71
2022-10-17T07:03:08.922Z,66.71
2022-10-17T07:04:08.894Z,68.48
2022-10-17T07:05:08.879Z,65.90
2022-10-17T07:06:08.871Z,67.03
2022-10-17T07:07:08.870Z,66.55
2022-10-17T07:08:08.890Z,67.51
2022-10-17T07:09:08.838Z,67.19
2022-10-17T07:10:08.833Z,65.74
2022-10-17T07:11:08.818Z,65.10
2022-10-17T07:12:08.801Z,66.39
2022-10-17T07:13:08.818Z,65.74
2022-10-17T07:14:08.794Z,66.71
2022-10-17T07:15:08.794Z,66.55
2022-10-17T07:16:08.769Z,68.64
2022-10-17T07:17:08.785Z,69.93
2022-10-17T07:18:08.775Z,68.96
2022-10-17T07:19:08.745Z,66.06
2022-10-17T07:20:08.725Z,66.39
2022-10-17T07:21:08.717Z,65.58
2022-10-17T07:22:09.707Z,67.68
2022-10-17T07:23:08.724Z,66.87
2022-10-17T07:24:08.691Z,64.78
2022-10-17T07:25:08.673Z,66.87
2022-10-17T07:26:08.664Z,68.48
2022-10-17T07:27:08.643Z,67.19
2022-10-17T07:28:09.660Z,67.51
2022-10-17T07:29:08.669Z,64.94
2022-10-17T07:30:08.629Z,67.51
2022-10-17T07:31:08.616Z,65.58
2022-10-17T07:32:08.606Z,67.03
2022-10-17T07:33:08.604Z,68.96
2022-10-17T07:34:08.595Z,66.55
2022-10-17T07:35:08.585Z,65.58
2022-10-17T07:36:08.573Z,64.13
2022-10-17T07:37:08.558Z,65.74
2022-10-17T07:38:08.571Z,67.19
2022-10-17T07:39:08.544Z,65.58
2022-10-17T07:40:08.530Z,64.94
2022-10-17T07:41:08.517Z,63.97
2022-10-17T07:42:08.513Z,65.10
2022-10-17T07:43:08.515Z,66.39
2022-10-17T07:44:08.488Z,65.26
2022-10-17T07:45:08.481Z,66.06
2022-10-17T07:46:08.468Z,68.64
2022-10-17T07:47:08.457Z,63.16
2022-10-17T07:48:08.455Z,64.61
2022-10-17T07:49:08.440Z,65.42
2022-10-17T07:50:08.432Z,64.29
2022-10-17T07:51:08.467Z,63.49
2022-10-17T07:52:08.408Z,65.10
2022-10-17T07:53:08.429Z,63.65
2022-10-17T07:54:08.390Z,63.16
2022-10-17T07:55:08.381Z,65.10
2022-10-17T07:56:08.438Z,64.45
2022-10-17T07:57:08.362Z,65.74
2022-10-17T07:58:08.367Z,65.90
2022-10-17T07:59:09.472Z,66.23
2022-10-17T08:00:09.334Z,63.00
2022-10-17T08:01:10.776Z,65.26
2022-10-17T08:02:09.311Z,63.65
2022-10-17T08:03:08.369Z,65.58
2022-10-17T08:04:08.285Z,62.20
2022-10-17T08:05:08.278Z,63.65
2022-10-17T08:06:08.278Z,63.65
2022-10-17T08:07:19.979Z,66.55
2022-10-17T08:08:10.280Z,65.58
2022-10-17T08:09:08.254Z,64.61
2022-10-17T08:11:08.242Z,66.23
2022-10-17T08:12:08.217Z,63.65
2022-10-17T08:13:08.221Z,64.13
2022-10-17T08:14:08.191Z,63.97
2022-10-17T08:15:08.184Z,63.49
2022-10-17T08:16:08.167Z,64.94
2022-10-17T08:17:08.157Z,65.42
2022-10-17T08:18:08.164Z,64.45
2022-10-17T08:20:08.137Z,65.58
2022-10-17T08:21:08.125Z,64.61
2022-10-17T08:22:08.115Z,64.13
2022-10-17T08:23:08.115Z,65.26
2022-10-17T08:24:08.100Z,65.90
2022-10-17T08:25:08.079Z,65.74
2022-10-17T08:26:08.078Z,66.39
2022-10-17T08:27:08.062Z,66.71
2022-10-17T08:29:09.055Z,64.29
2022-10-17T08:30:08.034Z,63.65
2022-10-17T08:31:08.026Z,66.71
2022-10-17T08:32:09.855Z,66.39
2022-10-17T08:33:08.031Z,65.10
2022-10-17T08:34:07.999Z,66.23
2022-10-17T08:35:07.981Z,67.19
2022-10-17T08:36:07.968Z,65.26
2022-10-17T08:37:08.045Z,65.74
2022-10-17T08:38:11.008Z,68.00
2022-10-17T08:39:08.956Z,64.13
2022-10-17T08:40:07.918Z,65.26
2022-10-17T08:41:07.921Z,65.74
2022-10-17T08:42:07.913Z,65.74
2022-10-17T08:43:07.919Z,66.55
2022-10-17T08:44:07.898Z,63.81
2022-10-17T08:45:07.887Z,66.87
2022-10-17T08:46:07.891Z,66.71
2022-10-17T08:47:07.860Z,68.16
2022-10-17T08:48:07.875Z,65.26
2022-10-17T08:49:11.385Z,65.58
2022-10-17T08:50:08.831Z,67.51
2022-10-17T08:51:07.827Z,67.03
2022-10-17T08:52:07.817Z,66.06
2022-10-17T08:53:07.826Z,66.23
2022-10-17T08:54:07.796Z,66.55
2022-10-17T08:55:07.869Z,65.58
2022-10-17T08:56:11.929Z,68.32
2022-10-17T08:57:08.759Z,65.90
2022-10-17T08:58:07.784Z,69.61
2022-10-17T08:59:07.757Z,68.16
2022-10-17T09:00:07.726Z,67.03
2022-10-17T09:01:12.734Z,67.03
2022-10-17T09:02:09.720Z,67.03
2022-10-17T09:03:07.765Z,65.74
2022-10-17T09:04:07.701Z,65.90
2022-10-17T09:05:08.547Z,65.90
2022-10-17T09:06:07.715Z,64.61
2022-10-17T09:07:07.671Z,64.94
2022-10-17T09:08:07.679Z,67.03
2022-10-17T09:09:07.648Z,64.94
2022-10-17T09:10:07.643Z,65.90
2022-10-17T09:11:07.633Z,66.71
2022-10-17T09:12:07.613Z,66.39
2022-10-17T09:13:08.011Z,66.71
2022-10-17T09:14:07.615Z,63.65
2022-10-17T09:15:07.622Z,65.58
2022-10-17T09:16:07.634Z,63.97
2022-10-17T09:17:07.574Z,66.39
2022-10-17T09:18:07.587Z,65.42
2022-10-17T09:19:07.557Z,64.78
2022-10-17T09:20:07.668Z,64.61
2022-10-17T09:21:07.535Z,65.74
2022-10-17T09:22:07.522Z,63.65
2022-10-17T09:23:07.542Z,65.26
2022-10-17T09:24:15.371Z,63.65
2022-10-17T09:25:08.487Z,63.49
2022-10-17T09:26:07.479Z,64.13
2022-10-17T09:27:07.476Z,65.10
2022-10-17T09:28:07.465Z,64.29
2022-10-17T09:29:07.537Z,63.81
2022-10-17T09:30:13.028Z,64.45
2022-10-17T09:31:08.440Z,63.00
2022-10-17T09:32:07.434Z,65.74
2022-10-17T09:33:07.423Z,65.26
2022-10-17T09:34:07.440Z,63.97
2022-10-17T09:35:07.389Z,65.26
2022-10-17T09:36:07.401Z,64.94
2022-10-17T09:37:07.371Z,63.16
2022-10-17T09:38:07.362Z,63.33
2022-10-17T09:39:07.381Z,63.16
2022-10-17T09:40:07.339Z,64.13
2022-10-17T09:41:25.637Z,62.20
2022-10-17T09:42:09.322Z,63.97
2022-10-17T09:43:07.315Z,65.10
2022-10-17T09:44:07.330Z,64.13
2022-10-17T09:45:08.308Z,65.42
2022-10-17T09:46:07.298Z,64.45
2022-10-17T09:47:07.286Z,63.33
2022-10-17T09:48:07.284Z,64.78
2022-10-17T09:49:07.285Z,63.65
2022-10-17T09:50:07.246Z,64.94
2022-10-17T09:51:15.098Z,63.65
2022-10-17T09:52:08.227Z,63.65
2022-10-17T09:53:07.225Z,66.87
2022-10-17T09:54:07.219Z,66.39
2022-10-17T09:55:07.205Z,64.45
2022-10-17T09:56:07.194Z,63.97
2022-10-17T09:57:07.182Z,66.23
2022-10-17T09:58:07.170Z,67.19
2022-10-17T09:59:11.530Z,65.10
2022-10-17T10:00:08.175Z,62.68
2022-10-17T10:01:07.199Z,63.49
2022-10-17T10:02:07.127Z,62.68
2022-10-17T10:03:07.146Z,66.71
2022-10-17T10:04:07.113Z,64.94
2022-10-17T10:05:08.799Z,62.68
2022-10-17T10:06:07.091Z,64.45
2022-10-17T10:07:07.082Z,65.90
2022-10-17T10:08:07.092Z,64.45
2022-10-17T10:09:07.066Z,67.51
2022-10-17T10:10:07.053Z,64.13
2022-10-17T10:11:07.879Z,64.45
2022-10-17T10:12:07.029Z,65.74
2022-10-17T10:13:07.045Z,63.16
2022-10-17T10:14:07.000Z,64.45
2022-10-17T10:15:07.008Z,64.13
2022-10-17T10:16:06.989Z,64.13
2022-10-17T10:17:06.985Z,65.26
2022-10-17T10:18:06.990Z,65.74
2022-10-17T10:19:08.415Z,65.42
2022-10-17T10:20:07.950Z,64.78
2022-10-17T10:21:06.943Z,66.06
2022-10-17T10:22:06.929Z,64.45
2022-10-17T10:23:06.925Z,63.65
2022-10-17T10:24:06.915Z,65.42
2022-10-17T10:25:06.906Z,61.87
2022-10-17T10:26:06.888Z,64.94
2022-10-17T10:27:06.887Z,65.58
2022-10-17T10:28:06.949Z,63.16
2022-10-17T10:29:06.911Z,66.23
2022-10-17T10:30:06.840Z,65.10
2022-10-17T10:31:06.840Z,64.13
2022-10-17T10:32:06.831Z,64.78
2022-10-17T10:33:06.843Z,64.78
2022-10-17T10:34:06.819Z,64.94
2022-10-17T10:35:06.801Z,63.16
2022-10-17T10:36:06.789Z,63.16
2022-10-17T10:37:06.783Z,63.65
2022-10-17T10:38:06.779Z,63.81
2022-10-17T10:39:06.760Z,63.65
2022-10-17T10:40:06.747Z,64.94
2022-10-17T10:41:06.747Z,66.55
2022-10-17T10:42:06.732Z,63.16
2022-10-17T10:43:06.749Z,63.81
2022-10-17T10:44:06.712Z,65.58
2022-10-17T10:45:09.259Z,64.78
2022-10-17T10:46:07.691Z,63.16
2022-10-17T10:47:06.682Z,64.13
2022-10-17T10:48:06.744Z,64.94
2022-10-17T10:49:06.665Z,62.84
2022-10-17T10:50:06.647Z,62.68
2022-10-17T10:51:06.648Z,63.00
2022-10-17T10:52:06.629Z,63.33
2022-10-17T10:53:06.647Z,62.68
2022-10-17T10:54:06.611Z,62.04
2022-10-17T10:55:06.596Z,63.49
2022-10-17T10:56:06.589Z,63.16
2022-10-17T10:57:07.592Z,63.16
2022-10-17T10:58:06.569Z,64.45
2022-10-17T10:59:06.580Z,63.00
2022-10-17T11:00:06.548Z,62.68
2022-10-17T11:01:06.601Z,62.68
2022-10-17T11:02:06.532Z,63.00
2022-10-17T11:03:09.448Z,64.13
2022-10-17T11:04:07.515Z,65.10
2022-10-17T11:05:06.521Z,63.97
2022-10-17T11:06:06.502Z,66.06
2022-10-17T11:07:06.513Z,63.65
2022-10-17T11:08:06.520Z,63.97
2022-10-17T11:09:06.475Z,62.68
2022-10-17T11:10:07.458Z,63.65
2022-10-17T11:11:06.447Z,65.42
2022-10-17T11:12:06.445Z,65.10
2022-10-17T11:13:06.423Z,62.36
2022-10-17T11:14:07.445Z,64.29
2022-10-17T11:15:06.406Z,64.13
2022-10-17T11:16:06.394Z,65.10
2022-10-17T11:17:06.377Z,63.00
2022-10-17T11:18:06.377Z,62.84
2022-10-17T11:19:06.386Z,64.78
2022-10-17T11:20:06.362Z,64.78
2022-10-17T11:21:06.342Z,64.29
2022-10-17T11:22:06.334Z,63.97
2022-10-17T11:23:06.346Z,63.65
2022-10-17T11:24:08.331Z,63.49
2022-10-17T11:25:06.306Z,64.29
2022-10-17T11:26:06.297Z,64.94
2022-10-17T11:27:06.355Z,63.81
2022-10-17T11:28:06.372Z,62.68
2022-10-17T11:29:06.365Z,63.33
2022-10-17T11:30:06.310Z,63.97
2022-10-17T11:31:08.002Z,65.42
2022-10-17T11:32:06.247Z,64.78
2022-10-17T11:33:06.248Z,64.78
2022-10-17T11:34:06.223Z,62.36
2022-10-17T11:35:06.234Z,62.04
2022-10-17T11:36:06.200Z,62.68
2022-10-17T11:37:06.188Z,63.65
2022-10-17T11:38:06.198Z,63.49
2022-10-17T11:39:06.171Z,63.49
2022-10-17T11:40:06.176Z,63.33
2022-10-17T11:41:06.189Z,63.33
2022-10-17T11:42:06.136Z,63.16
2022-10-17T11:43:06.153Z,64.78
2022-10-17T11:44:06.127Z,63.33
2022-10-17T11:45:06.124Z,64.94
2022-10-17T11:46:06.095Z,65.10
2022-10-17T11:47:06.100Z,63.97
2022-10-17T11:48:06.111Z,65.26
2022-10-17T11:49:06.162Z,63.81
2022-10-17T11:52:08.048Z,64.78
2022-10-17T11:53:06.047Z,64.29
2022-10-17T11:54:06.018Z,65.74
2022-10-17T11:55:06.015Z,63.97
2022-10-17T11:56:06.021Z,63.00
2022-10-17T11:57:05.991Z,63.49
2022-10-17T11:58:05.988Z,63.49
2022-10-17T11:59:05.974Z,63.33
2022-10-17T12:00:05.972Z,63.00
2022-10-17T12:01:05.963Z,63.65
2022-10-17T12:02:05.947Z,63.49
2022-10-17T12:03:05.957Z,63.81
2022-10-17T12:04:05.974Z,63.49
2022-10-17T12:05:05.940Z,64.29
2022-10-17T12:06:05.900Z,64.29
2022-10-17T12:07:05.895Z,65.26
2022-10-17T12:08:05.905Z,64.78
2022-10-17T12:09:05.884Z,64.13
2022-10-17T12:10:05.881Z,64.13
2022-10-17T12:11:05.860Z,63.49
2022-10-17T12:12:05.847Z,64.29
2022-10-17T12:13:05.841Z,64.45
2022-10-17T12:14:06.295Z,63.49
2022-10-17T12:15:05.817Z,67.68
2022-10-17T12:16:05.902Z,62.68
2022-10-17T12:17:05.803Z,65.10
2022-10-17T12:18:05.802Z,63.81
2022-10-17T12:19:05.773Z,64.78
2022-10-17T12:20:05.770Z,62.20
2022-10-17T12:21:05.759Z,64.78
2022-10-17T12:22:05.738Z,65.10
2022-10-17T12:23:05.753Z,63.65
2022-10-17T12:24:05.730Z,63.97
2022-10-17T12:25:05.724Z,64.45
2022-10-17T12:26:05.764Z,64.45
2022-10-17T12:27:05.697Z,63.49
2022-10-17T12:28:05.710Z,63.49
2022-10-17T12:29:05.719Z,64.29
2022-10-17T12:30:05.657Z,64.45
2022-10-17T12:31:05.663Z,64.61
2022-10-17T12:32:05.650Z,63.65
2022-10-17T12:33:07.105Z,62.68
2022-10-17T12:34:06.635Z,63.65
2022-10-17T12:35:05.619Z,63.00
2022-10-17T12:36:05.613Z,64.94
2022-10-17T12:37:05.593Z,64.13
2022-10-17T12:38:06.055Z,64.45
2022-10-17T12:39:05.580Z,65.10
2022-10-17T12:40:05.568Z,65.90
2022-10-17T12:41:05.574Z,64.78
2022-10-17T12:42:05.553Z,67.03
2022-10-17T12:43:05.589Z,64.29
2022-10-17T12:44:05.540Z,64.61
2022-10-17T12:45:05.527Z,66.06
2022-10-17T12:46:05.518Z,63.33
2022-10-17T12:47:05.503Z,63.81
2022-10-17T12:48:05.514Z,65.42
2022-10-17T12:49:06.495Z,64.29
2022-10-17T12:50:05.489Z,64.78
2022-10-17T12:51:34.281Z,65.90
2022-10-17T12:52:07.458Z,63.33
2022-10-17T12:53:05.463Z,64.29
2022-10-17T12:54:05.449Z,65.26
2022-10-17T12:55:13.801Z,66.06
2022-10-17T12:56:07.419Z,63.33
2022-10-17T12:57:05.422Z,63.16
2022-10-17T12:58:05.431Z,65.26
2022-10-17T12:59:05.387Z,63.49
2022-10-17T13:00:05.375Z,65.26